Navigator — WDE7302 — position and weather

sailwx.info

Track history (hours):
 
Tides and Currents Weather Stations Pressure Air Temp Water Temp Dewpoint Dewpoint Depression Visibility Wind Speed Wind Dir Waves Ship Positions

Navigator

Owner: GT 108 Inc., Dover, DE. More information available from US FCC via Universal Licensing System and Coast Guard Vessel Documentation Center.

Last reported at 2018-Jun-21 18:00 UTC. Time now 2018-Jun-21 18:14 UTC.
Position N 39°55' W 075°08'.

Length 32 m; draft 4.7 m.

Type: Tug. MMSI: 366741180.

Date/timePositionNaut miles runAvg speedWind from/ knotsBaromVisibWave heightAir tempDewpointWater temp
2018-Jun-21 18:00N 39°55' W 075°08'0 0.0
2018-Jun-21 17:30N 39°55' W 075°08'0 0.0
2018-Jun-21 17:00N 39°55' W 075°08'0 0.0
2018-Jun-21 16:30N 39°55' W 075°08'0 0.0
2018-Jun-21 16:00N 39°55' W 075°08'0 0.0
2018-Jun-21 15:30N 39°55' W 075°08'0 0.0
2018-Jun-21 15:00N 39°55' W 075°08'0 0.0
2018-Jun-21 14:30N 39°55' W 075°08'0 0.0
2018-Jun-21 14:00N 39°55' W 075°08'0 0.0
2018-Jun-21 13:30N 39°55' W 075°08'0 0.0
2018-Jun-21 13:00N 39°55' W 075°08'0 0.0
2018-Jun-21 12:30N 39°55' W 075°08'0 0.0
2018-Jun-21 12:00N 39°55' W 075°08'1 1.3
2018-Jun-21 11:30N 39°55' W 075°08'2 4.0
2018-Jun-21 11:00N 39°57' W 075°08'2 4.7
2018-Jun-21 10:30N 39°55' W 075°08'0 0.6
2018-Jun-21 10:01N 39°55' W 075°08'0 0.1
2018-Jun-21 09:30N 39°55' W 075°08'0 0.0
2018-Jun-21 09:00N 39°55' W 075°08'0 0.0
2018-Jun-21 08:30N 39°55' W 075°08'0 0.0
2018-Jun-21 08:00N 39°55' W 075°08'0 0.0
2018-Jun-21 07:30N 39°55' W 075°08'0 0.0
2018-Jun-21 07:00N 39°55' W 075°08'0 0.0
2018-Jun-21 06:30N 39°55' W 075°08'0 0.0
2018-Jun-21 06:00N 39°55' W 075°08'0 0.0
2018-Jun-21 05:30N 39°55' W 075°08'0 0.0
2018-Jun-21 05:00N 39°55' W 075°08'0 0.0
2018-Jun-21 04:30N 39°55' W 075°08'0 0.0
2018-Jun-21 04:00N 39°55' W 075°08'0 0.0
2018-Jun-21 03:31N 39°55' W 075°08'0 0.0
2018-Jun-21 03:01N 39°55' W 075°08'0 0.0
2018-Jun-21 02:31N 39°55' W 075°08'0 0.0
2018-Jun-21 02:00N 39°55' W 075°08'0 0.0
2018-Jun-21 01:30N 39°55' W 075°08'0 0.0
2018-Jun-21 01:00N 39°55' W 075°08'0 0.0
2018-Jun-21 00:30N 39°55' W 075°08'0 0.0
2018-Jun-21 00:00N 39°55' W 075°08'0 0.0
2018-Jun-20 23:30N 39°55' W 075°08'0 0.0
2018-Jun-20 23:00N 39°55' W 075°08'0 0.0
2018-Jun-20 22:30N 39°55' W 075°08'0 0.0
2018-Jun-20 22:00N 39°55' W 075°08'0 0.0
2018-Jun-20 21:30N 39°55' W 075°08'0 0.0
2018-Jun-20 21:00N 39°55' W 075°08'0 0.0
2018-Jun-20 20:30N 39°55' W 075°08'0 0.0
2018-Jun-20 20:00N 39°55' W 075°08'0 0.0
2018-Jun-20 19:30N 39°55' W 075°08'0 0.0
2018-Jun-20 19:00N 39°55' W 075°08'0 0.0
2018-Jun-20 18:30N 39°55' W 075°08'0 0.0
2018-Jun-20 18:00N 39°55' W 075°08'0 0.0
2018-Jun-20 17:30N 39°55' W 075°08'0 0.0
2018-Jun-20 17:00N 39°55' W 075°08'0 0.0
2018-Jun-20 16:30N 39°55' W 075°08'0 0.0
2018-Jun-20 16:00N 39°55' W 075°08'0 0.0
2018-Jun-20 15:30N 39°55' W 075°08'0 0.0
2018-Jun-20 15:00N 39°55' W 075°08'0 0.0
2018-Jun-20 14:30N 39°55' W 075°08'0 0.0
2018-Jun-20 14:00N 39°55' W 075°08'0 0.0
2018-Jun-20 13:30N 39°55' W 075°08'0 0.0
2018-Jun-20 13:00N 39°55' W 075°08'0 0.0
2018-Jun-20 12:30N 39°55' W 075°08'0 0.0
2018-Jun-20 12:00N 39°55' W 075°08'0 0.0
2018-Jun-20 11:31N 39°55' W 075°08'0 0.0
2018-Jun-20 11:00N 39°55' W 075°08'0 0.0
2018-Jun-20 10:31N 39°55' W 075°08'0 0.0
2018-Jun-20 10:00N 39°55' W 075°08'0 0.0
2018-Jun-20 09:30N 39°55' W 075°08'0 0.0
2018-Jun-20 09:00N 39°55' W 075°08'0 0.0
2018-Jun-20 08:30N 39°55' W 075°08'0 0.0
2018-Jun-20 08:00N 39°55' W 075°08'2 4.5
2018-Jun-20 07:30N 39°53' W 075°09'3 6.9
2018-Jun-20 07:00N 39°52' W 075°13'4 7.2
2018-Jun-20 06:30N 39°51' W 075°18'4 7.0
2018-Jun-20 06:00N 39°50' W 075°22'4 7.1
2018-Jun-20 05:30N 39°48' W 075°26'4 7.0
2018-Jun-20 05:00N 39°45' W 075°29'4 7.5
2018-Jun-20 04:30N 39°42' W 075°31'4 7.2
2018-Jun-20 04:00N 39°39' W 075°33'3 6.3
2018-Jun-20 03:30N 39°36' W 075°34'4 7.1
2018-Jun-20 03:00N 39°32' W 075°33'4 7.2
2018-Jun-20 02:30N 39°29' W 075°34'3 6.8
2018-Jun-20 02:00N 39°26' W 075°32'3 6.8
2018-Jun-20 01:30N 39°23' W 075°29'3 7.1
2018-Jun-20 01:00N 39°21' W 075°26'3 6.9
2018-Jun-20 00:30N 39°18' W 075°23'4 7.2
2018-Jun-20 00:00N 39°15' W 075°20'4 7.5
2018-Jun-19 23:30N 39°12' W 075°17'4 7.7
2018-Jun-19 23:00N 39°09' W 075°14'4 7.9
2018-Jun-19 22:30N 39°06' W 075°11'4 7.9
2018-Jun-19 22:00N 39°02' W 075°09'8 6.8
2018-Jun-19 20:50N 38°55' W 075°05'58 6.3
2018-Jun-19 11:36N 39°32' W 074°07'1 7.7
2018-Jun-19 11:28N 39°33' W 074°06'4 7.6
2018-Jun-19 10:58N 39°36' W 074°04'4 7.5
2018-Jun-19 10:29N 39°40' W 074°02'4 7.5
2018-Jun-19 09:54N 39°44' W 074°01'44 7.8
2018-Jun-19 04:11N 40°28' W 073°55'1 5.3
2018-Jun-19 03:54N 40°29' W 073°56'3 7.1
2018-Jun-19 03:30N 40°31' W 073°59'3 6.3
2018-Jun-19 02:59N 40°33' W 074°02'4 7.4
2018-Jun-19 02:30N 40°37' W 074°03'4 7.4
2018-Jun-19 02:00N 40°40' W 074°03'3 5.8
2018-Jun-19 01:30N 40°42' W 073°60'1 2.0
2018-Jun-19 01:00N 40°42' W 073°58'0 0.0
2018-Jun-19 00:30N 40°42' W 073°58'0 0.0
2018-Jun-19 00:00N 40°42' W 073°58'0 0.0
2018-Jun-18 23:30N 40°42' W 073°58'0 0.0
2018-Jun-18 23:00N 40°42' W 073°58'0 0.0
2018-Jun-18 22:30N 40°42' W 073°58'0 0.0
2018-Jun-18 22:00N 40°42' W 073°58'0 0.0
2018-Jun-18 21:30N 40°42' W 073°58'0 0.0
2018-Jun-18 21:00N 40°42' W 073°58'0 0.0
2018-Jun-18 20:30N 40°42' W 073°58'0 0.0
2018-Jun-18 19:59N 40°42' W 073°58'0 0.0
2018-Jun-18 19:30N 40°42' W 073°58'0 0.0
2018-Jun-18 19:00N 40°42' W 073°58'0 0.0
2018-Jun-18 18:30N 40°42' W 073°58'0 0.0
2018-Jun-18 18:00N 40°42' W 073°58'0 0.0
2018-Jun-18 17:30N 40°42' W 073°58'0 0.0
2018-Jun-18 17:00N 40°42' W 073°58'0 0.0
2018-Jun-18 16:30N 40°42' W 073°58'0 0.0
2018-Jun-18 16:00N 40°42' W 073°58'0 0.0
2018-Jun-18 15:30N 40°42' W 073°58'0 0.0
2018-Jun-18 14:59N 40°42' W 073°58'0 0.0
2018-Jun-18 14:30N 40°42' W 073°58'0 0.0
2018-Jun-18 14:00N 40°42' W 073°58'0 0.0
2018-Jun-18 13:30N 40°42' W 073°58'0 0.0
2018-Jun-18 13:00N 40°42' W 073°58'0 0.0
2018-Jun-18 12:30N 40°42' W 073°58'0 0.1
2018-Jun-18 12:00N 40°42' W 073°58'2 3.4
2018-Jun-18 11:30N 40°42' W 074°00'3 6.7
2018-Jun-18 11:00N 40°39' W 074°03'4 7.5
2018-Jun-18 10:30N 40°35' W 074°02'1 1.8
2018-Jun-18 10:00N 40°35' W 074°02'2 4.7
2018-Jun-18 09:30N 40°32' W 074°01'3 5.6
2018-Jun-18 09:00N 40°31' W 073°58'2 4.7
2018-Jun-18 08:30N 40°30' W 073°55'2 4.2
2018-Jun-18 08:00N 40°28' W 073°53'3 5.1
2018-Jun-18 07:30N 40°26' W 073°54'3 5.1
2018-Jun-18 07:00N 40°23' W 073°54'3 5.0
2018-Jun-18 06:30N 40°21' W 073°54'2 5.0
2018-Jun-18 06:00N 40°18' W 073°53'3 5.2
2018-Jun-18 05:30N 40°16' W 073°51'5 4.7
2018-Jun-18 04:21N 40°11' W 073°55'2 5.2
2018-Jun-18 03:52N 40°09' W 073°54'2 5.3
2018-Jun-18 03:25N 40°07' W 073°53'3 4.9
2018-Jun-18 02:51N 40°04' W 073°54'2 6.3
2018-Jun-18 02:30N 40°03' W 073°56'4 6.9
2018-Jun-18 01:57N 39°59' W 073°59'3 6.4
2018-Jun-18 01:30N 39°57' W 074°01'4 7.1
2018-Jun-18 01:00N 39°53' W 074°01'3 5.4
2018-Jun-18 00:27N 39°50' W 074°02'2 5.3
2018-Jun-18 00:00N 39°48' W 074°02'3 5.5
2018-Jun-17 23:30N 39°45' W 074°03'3 5.6
2018-Jun-17 22:59N 39°43' W 074°04'3 5.8
2018-Jun-17 22:30N 39°40' W 074°05'3 5.9
2018-Jun-17 22:00N 39°37' W 074°07'3 6.6
2018-Jun-17 21:29N 39°34' W 074°09'3 5.3
2018-Jun-17 20:59N 39°32' W 074°08'3 5.2
2018-Jun-17 20:29N 39°29' W 074°07'2 4.7
2018-Jun-17 19:59N 39°27' W 074°07'3 5.2
2018-Jun-17 19:30N 39°25' W 074°09'3 5.2
2018-Jun-17 18:53N 39°23' W 074°12'2 5.4
2018-Jun-17 18:30N 39°21' W 074°14'3 5.5
2018-Jun-17 17:57N 39°19' W 074°17'27 6.3
2018-Jun-17 13:41N 38°59' W 074°41'2 7.6
2018-Jun-17 13:28N 38°58' W 074°42'33 5.3
2018-Jun-17 07:20N 39°14' W 075°19'3 8.5
2018-Jun-17 06:59N 39°17' W 075°21'4 8.2
2018-Jun-17 06:30N 39°20' W 075°25'4 7.6
2018-Jun-17 06:00N 39°22' W 075°28'4 7.1
2018-Jun-17 05:30N 39°25' W 075°31'3 6.6
2018-Jun-17 05:00N 39°28' W 075°34'3 6.3
2018-Jun-17 04:30N 39°31' W 075°33'3 5.5
2018-Jun-17 04:00N 39°34' W 075°33'5 9.3
2018-Jun-17 03:30N 39°33' W 075°40'510.0
2018-Jun-17 02:58N 39°32' W 075°46'9 9.7
2018-Jun-17 02:00N 39°29' W 075°57'5 9.6
2018-Jun-17 01:30N 39°25' W 076°02'7 9.7
2018-Jun-17 00:48N 39°21' W 076°09'3 9.7
2018-Jun-17 00:30N 39°20' W 076°12'5 9.1
2018-Jun-17 00:00N 39°15' W 076°14'4 8.9
2018-Jun-16 23:30N 39°11' W 076°17'4 8.0
2018-Jun-16 22:59N 39°09' W 076°21'4 9.0
2018-Jun-16 22:30N 39°11' W 076°26'3 5.3
2018-Jun-16 22:01N 39°13' W 076°29'0 0.3
2018-Jun-16 21:30N 39°13' W 076°29'0 0.0
2018-Jun-16 21:00N 39°13' W 076°29'0 0.0
2018-Jun-16 20:30N 39°13' W 076°29'0 0.0
2018-Jun-16 20:00N 39°13' W 076°29'0 0.0
2018-Jun-16 19:30N 39°13' W 076°29'0 0.0
2018-Jun-16 19:00N 39°13' W 076°29'0 0.0
2018-Jun-16 18:30N 39°13' W 076°29'0 0.0
2018-Jun-16 18:00N 39°13' W 076°29'0 0.0
2018-Jun-16 17:30N 39°13' W 076°29'0 0.0
2018-Jun-16 17:00N 39°13' W 076°29'0 0.0
2018-Jun-16 16:30N 39°13' W 076°29'0 0.0
2018-Jun-16 16:00N 39°13' W 076°29'0 0.0
2018-Jun-16 15:30N 39°13' W 076°29'0 0.0
2018-Jun-16 15:00N 39°13' W 076°29'0 0.0
2018-Jun-16 14:30N 39°13' W 076°29'0 0.0
2018-Jun-16 14:00N 39°13' W 076°29'0 0.0
2018-Jun-16 13:30N 39°13' W 076°29'0 0.0
2018-Jun-16 13:00N 39°13' W 076°29'0 0.0
2018-Jun-16 12:30N 39°13' W 076°29'0 0.0
2018-Jun-16 12:00N 39°13' W 076°29'0 0.0
2018-Jun-16 11:30N 39°13' W 076°29'0 0.0
2018-Jun-16 11:00N 39°13' W 076°29'0 0.0
2018-Jun-16 10:30N 39°13' W 076°29'0 0.0
2018-Jun-16 10:00N 39°13' W 076°29'0 0.0
2018-Jun-16 09:30N 39°13' W 076°29'0 0.0
2018-Jun-16 09:00N 39°13' W 076°29'0 0.0
2018-Jun-16 08:30N 39°13' W 076°29'0 0.0
2018-Jun-16 08:00N 39°13' W 076°29'0 0.0
2018-Jun-16 07:30N 39°13' W 076°29'0 0.0
2018-Jun-16 07:00N 39°13' W 076°29'0 0.0
2018-Jun-16 06:30N 39°13' W 076°29'0 0.0
2018-Jun-16 06:00N 39°13' W 076°29'0 0.0
2018-Jun-16 05:30N 39°13' W 076°29'0 0.0
2018-Jun-16 05:00N 39°13' W 076°29'0 0.0
2018-Jun-16 04:30N 39°13' W 076°29'0 0.0
2018-Jun-16 04:00N 39°13' W 076°29'0 0.0
2018-Jun-16 03:30N 39°13' W 076°29'0 0.0
2018-Jun-16 03:00N 39°13' W 076°29'0 0.0
2018-Jun-16 02:30N 39°13' W 076°29'0 0.0
2018-Jun-16 02:00N 39°13' W 076°29'0 0.0
2018-Jun-16 01:30N 39°13' W 076°29'0 0.0
2018-Jun-16 01:00N 39°13' W 076°29'0 0.0
2018-Jun-16 00:30N 39°13' W 076°29'0 0.0
2018-Jun-16 00:00N 39°13' W 076°29'0 0.0
2018-Jun-15 23:30N 39°13' W 076°29'0 0.0
2018-Jun-15 23:00N 39°13' W 076°29'0 0.0
2018-Jun-15 22:30N 39°13' W 076°29'0 0.0
2018-Jun-15 22:00N 39°13' W 076°29'0 0.0
2018-Jun-15 21:30N 39°13' W 076°29'0 0.0
2018-Jun-15 21:00N 39°13' W 076°29'0 0.0
2018-Jun-15 20:30N 39°13' W 076°29'0 0.0
2018-Jun-15 20:00N 39°13' W 076°29'0 0.0
2018-Jun-15 19:30N 39°13' W 076°29'0 0.0
2018-Jun-15 19:00N 39°13' W 076°29'0 0.0
2018-Jun-15 18:30N 39°13' W 076°29'0 0.0
2018-Jun-15 18:00N 39°13' W 076°29'0 0.0
2018-Jun-15 17:30N 39°13' W 076°29'0 0.0
2018-Jun-15 17:00N 39°13' W 076°29'0 0.0
2018-Jun-15 16:30N 39°13' W 076°29'0 0.0
2018-Jun-15 16:00N 39°13' W 076°29'0 0.0
2018-Jun-15 15:30N 39°13' W 076°29'0 0.0
2018-Jun-15 15:00N 39°13' W 076°29'0 0.0
2018-Jun-15 14:30N 39°13' W 076°29'0 0.0
2018-Jun-15 14:00N 39°13' W 076°29'0 0.0
2018-Jun-15 13:30N 39°13' W 076°29'0 0.0
2018-Jun-15 13:00N 39°13' W 076°29'0 0.0
2018-Jun-15 12:30N 39°13' W 076°29'0 0.0
2018-Jun-15 12:00N 39°13' W 076°29'0 0.0
2018-Jun-15 11:30N 39°13' W 076°29'0 0.0
2018-Jun-15 11:00N 39°13' W 076°29'0 0.0
2018-Jun-15 10:30N 39°13' W 076°29'1 1.1
2018-Jun-15 10:00N 39°12' W 076°29'8 4.9
2018-Jun-15 08:18N 39°09' W 076°19'1 4.4
2018-Jun-15 07:59N 39°10' W 076°18'2 4.6
2018-Jun-15 07:30N 39°12' W 076°16'2 4.8
2018-Jun-15 07:00N 39°14' W 076°15'3 6.1
2018-Jun-15 06:30N 39°17' W 076°14'3 6.0
2018-Jun-15 06:00N 39°19' W 076°12'3 6.3
2018-Jun-15 05:29N 39°22' W 076°09'4 8.3
2018-Jun-15 05:00N 39°23' W 076°04'5 9.5
2018-Jun-15 04:30N 39°27' W 075°60'510.1
2018-Jun-15 04:00N 39°30' W 075°55'5 9.9
2018-Jun-15 03:30N 39°32' W 075°49'5 9.6
2018-Jun-15 03:00N 39°33' W 075°43'5 9.5
2018-Jun-15 02:30N 39°33' W 075°37'3 6.7
2018-Jun-15 02:00N 39°32' W 075°33'4 8.8
2018-Jun-15 01:31N 39°28' W 075°34'4 8.5
2018-Jun-15 01:00N 39°25' W 075°31'4 8.3
2018-Jun-15 00:30N 39°22' W 075°27'4 8.0
2018-Jun-15 00:01N 39°19' W 075°24'1 2.4
2018-Jun-14 23:31N 39°18' W 075°23'2 4.7
2018-Jun-14 23:01N 39°16' W 075°20'3 6.7
2018-Jun-14 22:31N 39°13' W 075°18'3 6.6
2018-Jun-14 22:00N 39°10' W 075°16'3 6.5
2018-Jun-14 21:31N 39°08' W 075°13'3 6.1
2018-Jun-14 21:00N 39°05' W 075°11'3 6.1
2018-Jun-14 20:30N 39°02' W 075°10'60 4.3
2018-Jun-14 06:27N 39°34' W 074°04'3 6.7
2018-Jun-14 05:58N 39°37' W 074°03'5 6.5
2018-Jun-14 05:09N 39°42' W 074°00'6 6.7
2018-Jun-14 04:12N 39°49' W 073°60'41 7.3
2018-Jun-13 22:33N 40°30' W 073°56'1 6.2
2018-Jun-13 22:28N 40°30' W 073°57'3 5.4
2018-Jun-13 22:00N 40°31' W 073°60'3 5.2
2018-Jun-13 21:29N 40°33' W 074°02'3 6.1
2018-Jun-13 21:00N 40°36' W 074°03'3 5.8
2018-Jun-13 20:30N 40°39' W 074°02'2 3.3
2018-Jun-13 20:00N 40°40' W 074°00'0 0.2
2018-Jun-13 19:30N 40°40' W 074°00'0 0.0
2018-Jun-13 19:00N 40°40' W 074°00'0 0.0
2018-Jun-13 18:30N 40°40' W 074°00'0 0.0
2018-Jun-13 18:00N 40°40' W 074°00'0 0.1
2018-Jun-13 17:30N 40°40' W 074°00'0 0.0
2018-Jun-13 17:00N 40°40' W 074°00'0 0.1
2018-Jun-13 16:30N 40°40' W 074°00'0 0.0
2018-Jun-13 16:00N 40°40' W 074°00'0 0.0
2018-Jun-13 15:30N 40°40' W 074°00'0 0.0
2018-Jun-13 15:00N 40°40' W 074°00'0 0.0
2018-Jun-13 14:30N 40°40' W 074°00'0 0.0
2018-Jun-13 14:00N 40°40' W 074°00'0 0.0
2018-Jun-13 13:30N 40°40' W 074°00'0 0.0
2018-Jun-13 13:00N 40°40' W 074°00'0 0.0
2018-Jun-13 12:30N 40°40' W 074°00'0 0.0
2018-Jun-13 12:00N 40°40' W 074°00'0 0.0
2018-Jun-13 11:30N 40°40' W 074°00'0 0.0
2018-Jun-13 11:00N 40°40' W 074°00'0 0.0
2018-Jun-13 10:30N 40°40' W 074°00'0 0.0
2018-Jun-13 10:00N 40°40' W 074°00'0 0.0
2018-Jun-13 09:30N 40°40' W 074°00'0 0.0
2018-Jun-13 09:00N 40°40' W 074°00'0 0.0
2018-Jun-13 08:30N 40°40' W 074°00'0 0.0
2018-Jun-13 08:00N 40°40' W 074°00'0 0.0
2018-Jun-13 07:30N 40°40' W 074°00'0 0.0
2018-Jun-13 07:00N 40°40' W 074°00'0 0.0
2018-Jun-13 06:30N 40°40' W 074°00'0 0.0
2018-Jun-13 06:00N 40°40' W 074°00'0 0.0
2018-Jun-13 05:30N 40°40' W 074°00'0 0.0
2018-Jun-13 05:00N 40°40' W 074°00'0 0.0
2018-Jun-13 04:30N 40°40' W 074°00'0 0.0
2018-Jun-13 04:00N 40°40' W 074°00'0 0.0
2018-Jun-13 03:30N 40°40' W 074°00'0 0.0
2018-Jun-13 03:00N 40°40' W 074°00'0 0.0
2018-Jun-13 02:30N 40°40' W 074°00'0 0.0
2018-Jun-13 02:00N 40°40' W 074°00'0 0.0
2018-Jun-13 01:30N 40°40' W 074°00'0 0.0
2018-Jun-13 01:00N 40°40' W 074°00'0 0.0
2018-Jun-13 00:30N 40°40' W 074°00'0 0.0
2018-Jun-13 00:00N 40°40' W 074°00'0 0.0
2018-Jun-12 23:30N 40°40' W 074°00'0 0.0
2018-Jun-12 23:00N 40°40' W 074°00'0 0.0
2018-Jun-12 22:30N 40°40' W 074°00'0 0.0
2018-Jun-12 22:00N 40°40' W 074°00'0 0.0
2018-Jun-12 21:30N 40°40' W 074°00'0 0.0
2018-Jun-12 21:00N 40°40' W 074°00'0 0.0
2018-Jun-12 20:30N 40°40' W 074°00'0 0.0
2018-Jun-12 20:00N 40°40' W 074°00'0 0.0
2018-Jun-12 19:30N 40°40' W 074°00'0 0.0
2018-Jun-12 19:00N 40°40' W 074°00'0 0.0
2018-Jun-12 18:30N 40°40' W 074°00'3 6.5
2018-Jun-12 18:00N 40°39' W 074°04'5 9.1
2018-Jun-12 17:30N 40°39' W 074°10'1 2.3
2018-Jun-12 17:00N 40°38' W 074°12'0 0.0
2018-Jun-12 16:29N 40°38' W 074°12'0 0.0
2018-Jun-12 16:00N 40°38' W 074°12'0 0.0
2018-Jun-12 15:30N 40°38' W 074°12'0 0.0
2018-Jun-12 15:00N 40°38' W 074°12'0 0.0
2018-Jun-12 14:01N 40°38' W 074°12'0 1.7
2018-Jun-12 13:54N 40°38' W 074°12'4 8.7
2018-Jun-12 13:29N 40°39' W 074°07'4 8.5
2018-Jun-12 13:00N 40°40' W 074°02'1 2.4
2018-Jun-12 12:30N 40°40' W 074°00'0 0.0
2018-Jun-12 12:00N 40°40' W 074°00'0 0.0
2018-Jun-12 11:30N 40°40' W 074°00'0 0.0
2018-Jun-12 11:00N 40°40' W 074°00'0 0.0
2018-Jun-12 10:31N 40°40' W 074°00'0 0.0
2018-Jun-12 10:00N 40°40' W 074°00'0 0.0
2018-Jun-12 09:30N 40°40' W 074°00'0 0.0
2018-Jun-12 08:59N 40°40' W 074°00'0 0.0
2018-Jun-12 08:27N 40°40' W 074°00'0 0.0
2018-Jun-12 08:00N 40°40' W 074°00'0 0.0
2018-Jun-12 07:30N 40°40' W 074°00'0 0.0
2018-Jun-12 07:00N 40°40' W 074°00'0 0.0
2018-Jun-12 06:30N 40°40' W 074°00'0 0.0
2018-Jun-12 05:55N 40°40' W 074°00'0 0.0
2018-Jun-12 05:30N 40°40' W 074°00'0 0.0
2018-Jun-12 04:59N 40°40' W 074°00'0 0.0
2018-Jun-12 04:28N 40°40' W 074°00'0 0.0
2018-Jun-12 03:58N 40°40' W 074°00'0 0.0
2018-Jun-12 03:28N 40°40' W 074°00'0 0.0
2018-Jun-12 02:50N 40°40' W 074°00'0 0.0
2018-Jun-12 02:30N 40°40' W 074°00'0 0.0
2018-Jun-12 01:59N 40°40' W 074°00'0 0.0
2018-Jun-12 01:27N 40°40' W 074°00'0 0.0
2018-Jun-12 01:00N 40°40' W 074°00'0 0.0
2018-Jun-12 00:26N 40°40' W 074°00'0 0.0
2018-Jun-12 00:00N 40°40' W 074°00'0 0.0
2018-Jun-11 23:30N 40°40' W 074°00'0 0.0
2018-Jun-11 23:00N 40°40' W 074°00'0 0.0
2018-Jun-11 22:29N 40°40' W 074°00'0 0.0
2018-Jun-11 21:56N 40°40' W 074°00'0 0.0
2018-Jun-11 21:28N 40°40' W 074°00'0 0.0
2018-Jun-11 20:59N 40°40' W 074°00'0 0.0
2018-Jun-11 20:23N 40°40' W 074°00'0 0.0
2018-Jun-11 19:54N 40°40' W 074°00'0 0.0
2018-Jun-11 19:30N 40°40' W 074°00'0 0.0
2018-Jun-11 19:00N 40°40' W 074°00'0 0.0
2018-Jun-11 18:30N 40°40' W 074°00'  
Track history (hours):
 
Tides and Currents Weather Stations Pressure Air Temp Water Temp Dewpoint Dewpoint Depression Visibility Wind Speed Wind Dir Waves Ship Positions

Navigator

Owner: GT 108 Inc., Dover, DE. More information available from US FCC via Universal Licensing System and Coast Guard Vessel Documentation Center.

Last reported at 2018-Jun-21 18:00 UTC. Time now 2018-Jun-21 18:14 UTC.
Position N 39°55' W 075°08'.

Length 32 m; draft 4.7 m.

Type: Tug. MMSI: 366741180.

Date/timePositionNaut miles runAvg speedWind from/ knotsBaromVisibWave heightAir tempDewpointWater temp
2018-Jun-21 18:00N 39°55' W 075°08'0 0.0
2018-Jun-21 17:30N 39°55' W 075°08'0 0.0
2018-Jun-21 17:00N 39°55' W 075°08'0 0.0
2018-Jun-21 16:30N 39°55' W 075°08'0 0.0
2018-Jun-21 16:00N 39°55' W 075°08'0 0.0
2018-Jun-21 15:30N 39°55' W 075°08'0 0.0
2018-Jun-21 15:00N 39°55' W 075°08'0 0.0
2018-Jun-21 14:30N 39°55' W 075°08'0 0.0
2018-Jun-21 14:00N 39°55' W 075°08'0 0.0
2018-Jun-21 13:30N 39°55' W 075°08'0 0.0
2018-Jun-21 13:00N 39°55' W 075°08'0 0.0
2018-Jun-21 12:30N 39°55' W 075°08'0 0.0
2018-Jun-21 12:00N 39°55' W 075°08'1 1.3
2018-Jun-21 11:30N 39°55' W 075°08'2 4.0
2018-Jun-21 11:00N 39°57' W 075°08'2 4.7
2018-Jun-21 10:30N 39°55' W 075°08'0 0.6
2018-Jun-21 10:01N 39°55' W 075°08'0 0.1
2018-Jun-21 09:30N 39°55' W 075°08'0 0.0
2018-Jun-21 09:00N 39°55' W 075°08'0 0.0
2018-Jun-21 08:30N 39°55' W 075°08'0 0.0
2018-Jun-21 08:00N 39°55' W 075°08'0 0.0
2018-Jun-21 07:30N 39°55' W 075°08'0 0.0
2018-Jun-21 07:00N 39°55' W 075°08'0 0.0
2018-Jun-21 06:30N 39°55' W 075°08'0 0.0
2018-Jun-21 06:00N 39°55' W 075°08'0 0.0
2018-Jun-21 05:30N 39°55' W 075°08'0 0.0
2018-Jun-21 05:00N 39°55' W 075°08'0 0.0
2018-Jun-21 04:30N 39°55' W 075°08'0 0.0
2018-Jun-21 04:00N 39°55' W 075°08'0 0.0
2018-Jun-21 03:31N 39°55' W 075°08'0 0.0
2018-Jun-21 03:01N 39°55' W 075°08'0 0.0
2018-Jun-21 02:31N 39°55' W 075°08'0 0.0
2018-Jun-21 02:00N 39°55' W 075°08'0 0.0
2018-Jun-21 01:30N 39°55' W 075°08'0 0.0
2018-Jun-21 01:00N 39°55' W 075°08'0 0.0
2018-Jun-21 00:30N 39°55' W 075°08'0 0.0
2018-Jun-21 00:00N 39°55' W 075°08'0 0.0
2018-Jun-20 23:30N 39°55' W 075°08'0 0.0
2018-Jun-20 23:00N 39°55' W 075°08'0 0.0
2018-Jun-20 22:30N 39°55' W 075°08'0 0.0
2018-Jun-20 22:00N 39°55' W 075°08'0 0.0
2018-Jun-20 21:30N 39°55' W 075°08'0 0.0
2018-Jun-20 21:00N 39°55' W 075°08'0 0.0
2018-Jun-20 20:30N 39°55' W 075°08'0 0.0
2018-Jun-20 20:00N 39°55' W 075°08'0 0.0
2018-Jun-20 19:30N 39°55' W 075°08'0 0.0
2018-Jun-20 19:00N 39°55' W 075°08'0 0.0
2018-Jun-20 18:30N 39°55' W 075°08'0 0.0
2018-Jun-20 18:00N 39°55' W 075°08'0 0.0
2018-Jun-20 17:30N 39°55' W 075°08'0 0.0
2018-Jun-20 17:00N 39°55' W 075°08'0 0.0
2018-Jun-20 16:30N 39°55' W 075°08'0 0.0
2018-Jun-20 16:00N 39°55' W 075°08'0 0.0
2018-Jun-20 15:30N 39°55' W 075°08'0 0.0
2018-Jun-20 15:00N 39°55' W 075°08'0 0.0
2018-Jun-20 14:30N 39°55' W 075°08'0 0.0
2018-Jun-20 14:00N 39°55' W 075°08'0 0.0
2018-Jun-20 13:30N 39°55' W 075°08'0 0.0
2018-Jun-20 13:00N 39°55' W 075°08'0 0.0
2018-Jun-20 12:30N 39°55' W 075°08'0 0.0
2018-Jun-20 12:00N 39°55' W 075°08'0 0.0
2018-Jun-20 11:31N 39°55' W 075°08'0 0.0
2018-Jun-20 11:00N 39°55' W 075°08'0 0.0
2018-Jun-20 10:31N 39°55' W 075°08'0 0.0
2018-Jun-20 10:00N 39°55' W 075°08'0 0.0
2018-Jun-20 09:30N 39°55' W 075°08'0 0.0
2018-Jun-20 09:00N 39°55' W 075°08'0 0.0
2018-Jun-20 08:30N 39°55' W 075°08'0 0.0
2018-Jun-20 08:00N 39°55' W 075°08'2 4.5
2018-Jun-20 07:30N 39°53' W 075°09'3 6.9
2018-Jun-20 07:00N 39°52' W 075°13'4 7.2
2018-Jun-20 06:30N 39°51' W 075°18'4 7.0
2018-Jun-20 06:00N 39°50' W 075°22'4 7.1
2018-Jun-20 05:30N 39°48' W 075°26'4 7.0
2018-Jun-20 05:00N 39°45' W 075°29'4 7.5
2018-Jun-20 04:30N 39°42' W 075°31'4 7.2
2018-Jun-20 04:00N 39°39' W 075°33'3 6.3
2018-Jun-20 03:30N 39°36' W 075°34'4 7.1
2018-Jun-20 03:00N 39°32' W 075°33'4 7.2
2018-Jun-20 02:30N 39°29' W 075°34'3 6.8
2018-Jun-20 02:00N 39°26' W 075°32'3 6.8
2018-Jun-20 01:30N 39°23' W 075°29'3 7.1
2018-Jun-20 01:00N 39°21' W 075°26'3 6.9
2018-Jun-20 00:30N 39°18' W 075°23'4 7.2
2018-Jun-20 00:00N 39°15' W 075°20'4 7.5
2018-Jun-19 23:30N 39°12' W 075°17'4 7.7
2018-Jun-19 23:00N 39°09' W 075°14'4 7.9
2018-Jun-19 22:30N 39°06' W 075°11'4 7.9
2018-Jun-19 22:00N 39°02' W 075°09'8 6.8
2018-Jun-19 20:50N 38°55' W 075°05'58 6.3
2018-Jun-19 11:36N 39°32' W 074°07'1 7.7
2018-Jun-19 11:28N 39°33' W 074°06'4 7.6
2018-Jun-19 10:58N 39°36' W 074°04'4 7.5
2018-Jun-19 10:29N 39°40' W 074°02'4 7.5
2018-Jun-19 09:54N 39°44' W 074°01'44 7.8
2018-Jun-19 04:11N 40°28' W 073°55'1 5.3
2018-Jun-19 03:54N 40°29' W 073°56'3 7.1
2018-Jun-19 03:30N 40°31' W 073°59'3 6.3
2018-Jun-19 02:59N 40°33' W 074°02'4 7.4
2018-Jun-19 02:30N 40°37' W 074°03'4 7.4
2018-Jun-19 02:00N 40°40' W 074°03'3 5.8
2018-Jun-19 01:30N 40°42' W 073°60'1 2.0
2018-Jun-19 01:00N 40°42' W 073°58'0 0.0
2018-Jun-19 00:30N 40°42' W 073°58'0 0.0
2018-Jun-19 00:00N 40°42' W 073°58'0 0.0
2018-Jun-18 23:30N 40°42' W 073°58'0 0.0
2018-Jun-18 23:00N 40°42' W 073°58'0 0.0
2018-Jun-18 22:30N 40°42' W 073°58'0 0.0
2018-Jun-18 22:00N 40°42' W 073°58'0 0.0
2018-Jun-18 21:30N 40°42' W 073°58'0 0.0
2018-Jun-18 21:00N 40°42' W 073°58'0 0.0
2018-Jun-18 20:30N 40°42' W 073°58'0 0.0
2018-Jun-18 19:59N 40°42' W 073°58'0 0.0
2018-Jun-18 19:30N 40°42' W 073°58'0 0.0
2018-Jun-18 19:00N 40°42' W 073°58'0 0.0
2018-Jun-18 18:30N 40°42' W 073°58'0 0.0
2018-Jun-18 18:00N 40°42' W 073°58'0 0.0
2018-Jun-18 17:30N 40°42' W 073°58'0 0.0
2018-Jun-18 17:00N 40°42' W 073°58'0 0.0
2018-Jun-18 16:30N 40°42' W 073°58'0 0.0
2018-Jun-18 16:00N 40°42' W 073°58'0 0.0
2018-Jun-18 15:30N 40°42' W 073°58'0 0.0
2018-Jun-18 14:59N 40°42' W 073°58'0 0.0
2018-Jun-18 14:30N 40°42' W 073°58'0 0.0
2018-Jun-18 14:00N 40°42' W 073°58'0 0.0
2018-Jun-18 13:30N 40°42' W 073°58'0 0.0
2018-Jun-18 13:00N 40°42' W 073°58'0 0.0
2018-Jun-18 12:30N 40°42' W 073°58'0 0.1
2018-Jun-18 12:00N 40°42' W 073°58'2 3.4
2018-Jun-18 11:30N 40°42' W 074°00'3 6.7
2018-Jun-18 11:00N 40°39' W 074°03'4 7.5
2018-Jun-18 10:30N 40°35' W 074°02'1 1.8
2018-Jun-18 10:00N 40°35' W 074°02'2 4.7
2018-Jun-18 09:30N 40°32' W 074°01'3 5.6
2018-Jun-18 09:00N 40°31' W 073°58'2 4.7
2018-Jun-18 08:30N 40°30' W 073°55'2 4.2
2018-Jun-18 08:00N 40°28' W 073°53'3 5.1
2018-Jun-18 07:30N 40°26' W 073°54'3 5.1
2018-Jun-18 07:00N 40°23' W 073°54'3 5.0
2018-Jun-18 06:30N 40°21' W 073°54'2 5.0
2018-Jun-18 06:00N 40°18' W 073°53'3 5.2
2018-Jun-18 05:30N 40°16' W 073°51'5 4.7
2018-Jun-18 04:21N 40°11' W 073°55'2 5.2
2018-Jun-18 03:52N 40°09' W 073°54'2 5.3
2018-Jun-18 03:25N 40°07' W 073°53'3 4.9
2018-Jun-18 02:51N 40°04' W 073°54'2 6.3
2018-Jun-18 02:30N 40°03' W 073°56'4 6.9
2018-Jun-18 01:57N 39°59' W 073°59'3 6.4
2018-Jun-18 01:30N 39°57' W 074°01'4 7.1
2018-Jun-18 01:00N 39°53' W 074°01'3 5.4
2018-Jun-18 00:27N 39°50' W 074°02'2 5.3
2018-Jun-18 00:00N 39°48' W 074°02'3 5.5
2018-Jun-17 23:30N 39°45' W 074°03'3 5.6
2018-Jun-17 22:59N 39°43' W 074°04'3 5.8
2018-Jun-17 22:30N 39°40' W 074°05'3 5.9
2018-Jun-17 22:00N 39°37' W 074°07'3 6.6
2018-Jun-17 21:29N 39°34' W 074°09'3 5.3
2018-Jun-17 20:59N 39°32' W 074°08'3 5.2
2018-Jun-17 20:29N 39°29' W 074°07'2 4.7
2018-Jun-17 19:59N 39°27' W 074°07'3 5.2
2018-Jun-17 19:30N 39°25' W 074°09'3 5.2
2018-Jun-17 18:53N 39°23' W 074°12'2 5.4
2018-Jun-17 18:30N 39°21' W 074°14'3 5.5
2018-Jun-17 17:57N 39°19' W 074°17'27 6.3
2018-Jun-17 13:41N 38°59' W 074°41'2 7.6
2018-Jun-17 13:28N 38°58' W 074°42'33 5.3
2018-Jun-17 07:20N 39°14' W 075°19'3 8.5
2018-Jun-17 06:59N 39°17' W 075°21'4 8.2
2018-Jun-17 06:30N 39°20' W 075°25'4 7.6
2018-Jun-17 06:00N 39°22' W 075°28'4 7.1
2018-Jun-17 05:30N 39°25' W 075°31'3 6.6
2018-Jun-17 05:00N 39°28' W 075°34'3 6.3
2018-Jun-17 04:30N 39°31' W 075°33'3 5.5
2018-Jun-17 04:00N 39°34' W 075°33'5 9.3
2018-Jun-17 03:30N 39°33' W 075°40'510.0
2018-Jun-17 02:58N 39°32' W 075°46'9 9.7
2018-Jun-17 02:00N 39°29' W 075°57'5 9.6
2018-Jun-17 01:30N 39°25' W 076°02'7 9.7
2018-Jun-17 00:48N 39°21' W 076°09'3 9.7
2018-Jun-17 00:30N 39°20' W 076°12'5 9.1
2018-Jun-17 00:00N 39°15' W 076°14'4 8.9
2018-Jun-16 23:30N 39°11' W 076°17'4 8.0
2018-Jun-16 22:59N 39°09' W 076°21'4 9.0
2018-Jun-16 22:30N 39°11' W 076°26'3 5.3
2018-Jun-16 22:01N 39°13' W 076°29'0 0.3
2018-Jun-16 21:30N 39°13' W 076°29'0 0.0
2018-Jun-16 21:00N 39°13' W 076°29'0 0.0
2018-Jun-16 20:30N 39°13' W 076°29'0 0.0
2018-Jun-16 20:00N 39°13' W 076°29'0 0.0
2018-Jun-16 19:30N 39°13' W 076°29'0 0.0
2018-Jun-16 19:00N 39°13' W 076°29'0 0.0
2018-Jun-16 18:30N 39°13' W 076°29'0 0.0
2018-Jun-16 18:00N 39°13' W 076°29'0 0.0
2018-Jun-16 17:30N 39°13' W 076°29'0 0.0
2018-Jun-16 17:00N 39°13' W 076°29'0 0.0
2018-Jun-16 16:30N 39°13' W 076°29'0 0.0
2018-Jun-16 16:00N 39°13' W 076°29'0 0.0
2018-Jun-16 15:30N 39°13' W 076°29'0 0.0
2018-Jun-16 15:00N 39°13' W 076°29'0 0.0
2018-Jun-16 14:30N 39°13' W 076°29'0 0.0
2018-Jun-16 14:00N 39°13' W 076°29'0 0.0
2018-Jun-16 13:30N 39°13' W 076°29'0 0.0
2018-Jun-16 13:00N 39°13' W 076°29'0 0.0
2018-Jun-16 12:30N 39°13' W 076°29'0 0.0
2018-Jun-16 12:00N 39°13' W 076°29'0 0.0
2018-Jun-16 11:30N 39°13' W 076°29'0 0.0
2018-Jun-16 11:00N 39°13' W 076°29'0 0.0
2018-Jun-16 10:30N 39°13' W 076°29'0 0.0
2018-Jun-16 10:00N 39°13' W 076°29'0 0.0
2018-Jun-16 09:30N 39°13' W 076°29'0 0.0
2018-Jun-16 09:00N 39°13' W 076°29'0 0.0
2018-Jun-16 08:30N 39°13' W 076°29'0 0.0
2018-Jun-16 08:00N 39°13' W 076°29'0 0.0
2018-Jun-16 07:30N 39°13' W 076°29'0 0.0
2018-Jun-16 07:00N 39°13' W 076°29'0 0.0
2018-Jun-16 06:30N 39°13' W 076°29'0 0.0
2018-Jun-16 06:00N 39°13' W 076°29'0 0.0
2018-Jun-16 05:30N 39°13' W 076°29'0 0.0
2018-Jun-16 05:00N 39°13' W 076°29'0 0.0
2018-Jun-16 04:30N 39°13' W 076°29'0 0.0
2018-Jun-16 04:00N 39°13' W 076°29'0 0.0
2018-Jun-16 03:30N 39°13' W 076°29'0 0.0
2018-Jun-16 03:00N 39°13' W 076°29'0 0.0
2018-Jun-16 02:30N 39°13' W 076°29'0 0.0
2018-Jun-16 02:00N 39°13' W 076°29'0 0.0
2018-Jun-16 01:30N 39°13' W 076°29'0 0.0
2018-Jun-16 01:00N 39°13' W 076°29'0 0.0
2018-Jun-16 00:30N 39°13' W 076°29'0 0.0
2018-Jun-16 00:00N 39°13' W 076°29'0 0.0
2018-Jun-15 23:30N 39°13' W 076°29'0 0.0
2018-Jun-15 23:00N 39°13' W 076°29'0 0.0
2018-Jun-15 22:30N 39°13' W 076°29'0 0.0
2018-Jun-15 22:00N 39°13' W 076°29'0 0.0
2018-Jun-15 21:30N 39°13' W 076°29'0 0.0
2018-Jun-15 21:00N 39°13' W 076°29'0 0.0
2018-Jun-15 20:30N 39°13' W 076°29'0 0.0
2018-Jun-15 20:00N 39°13' W 076°29'0 0.0
2018-Jun-15 19:30N 39°13' W 076°29'0 0.0
2018-Jun-15 19:00N 39°13' W 076°29'0 0.0
2018-Jun-15 18:30N 39°13' W 076°29'0 0.0
2018-Jun-15 18:00N 39°13' W 076°29'0 0.0
2018-Jun-15 17:30N 39°13' W 076°29'0 0.0
2018-Jun-15 17:00N 39°13' W 076°29'0 0.0
2018-Jun-15 16:30N 39°13' W 076°29'0 0.0
2018-Jun-15 16:00N 39°13' W 076°29'0 0.0
2018-Jun-15 15:30N 39°13' W 076°29'0 0.0
2018-Jun-15 15:00N 39°13' W 076°29'0 0.0
2018-Jun-15 14:30N 39°13' W 076°29'0 0.0
2018-Jun-15 14:00N 39°13' W 076°29'0 0.0
2018-Jun-15 13:30N 39°13' W 076°29'0 0.0
2018-Jun-15 13:00N 39°13' W 076°29'0 0.0
2018-Jun-15 12:30N 39°13' W 076°29'0 0.0
2018-Jun-15 12:00N 39°13' W 076°29'0 0.0
2018-Jun-15 11:30N 39°13' W 076°29'0 0.0
2018-Jun-15 11:00N 39°13' W 076°29'0 0.0
2018-Jun-15 10:30N 39°13' W 076°29'1 1.1
2018-Jun-15 10:00N 39°12' W 076°29'8 4.9
2018-Jun-15 08:18N 39°09' W 076°19'1 4.4
2018-Jun-15 07:59N 39°10' W 076°18'2 4.6
2018-Jun-15 07:30N 39°12' W 076°16'2 4.8
2018-Jun-15 07:00N 39°14' W 076°15'3 6.1
2018-Jun-15 06:30N 39°17' W 076°14'3 6.0
2018-Jun-15 06:00N 39°19' W 076°12'3 6.3
2018-Jun-15 05:29N 39°22' W 076°09'4 8.3
2018-Jun-15 05:00N 39°23' W 076°04'5 9.5
2018-Jun-15 04:30N 39°27' W 075°60'510.1
2018-Jun-15 04:00N 39°30' W 075°55'5 9.9
2018-Jun-15 03:30N 39°32' W 075°49'5 9.6
2018-Jun-15 03:00N 39°33' W 075°43'5 9.5
2018-Jun-15 02:30N 39°33' W 075°37'3 6.7
2018-Jun-15 02:00N 39°32' W 075°33'4 8.8
2018-Jun-15 01:31N 39°28' W 075°34'4 8.5
2018-Jun-15 01:00N 39°25' W 075°31'4 8.3
2018-Jun-15 00:30N 39°22' W 075°27'4 8.0
2018-Jun-15 00:01N 39°19' W 075°24'1 2.4
2018-Jun-14 23:31N 39°18' W 075°23'2 4.7
2018-Jun-14 23:01N 39°16' W 075°20'3 6.7
2018-Jun-14 22:31N 39°13' W 075°18'3 6.6
2018-Jun-14 22:00N 39°10' W 075°16'3 6.5
2018-Jun-14 21:31N 39°08' W 075°13'3 6.1
2018-Jun-14 21:00N 39°05' W 075°11'3 6.1
2018-Jun-14 20:30N 39°02' W 075°10'60 4.3
2018-Jun-14 06:27N 39°34' W 074°04'3 6.7
2018-Jun-14 05:58N 39°37' W 074°03'5 6.5
2018-Jun-14 05:09N 39°42' W 074°00'6 6.7
2018-Jun-14 04:12N 39°49' W 073°60'41 7.3
2018-Jun-13 22:33N 40°30' W 073°56'1 6.2
2018-Jun-13 22:28N 40°30' W 073°57'3 5.4
2018-Jun-13 22:00N 40°31' W 073°60'3 5.2
2018-Jun-13 21:29N 40°33' W 074°02'3 6.1
2018-Jun-13 21:00N 40°36' W 074°03'3 5.8
2018-Jun-13 20:30N 40°39' W 074°02'2 3.3
2018-Jun-13 20:00N 40°40' W 074°00'0 0.2
2018-Jun-13 19:30N 40°40' W 074°00'0 0.0
2018-Jun-13 19:00N 40°40' W 074°00'0 0.0
2018-Jun-13 18:30N 40°40' W 074°00'0 0.0
2018-Jun-13 18:00N 40°40' W 074°00'0 0.1
2018-Jun-13 17:30N 40°40' W 074°00'0 0.0
2018-Jun-13 17:00N 40°40' W 074°00'0 0.1
2018-Jun-13 16:30N 40°40' W 074°00'0 0.0
2018-Jun-13 16:00N 40°40' W 074°00'0 0.0
2018-Jun-13 15:30N 40°40' W 074°00'0 0.0
2018-Jun-13 15:00N 40°40' W 074°00'0 0.0
2018-Jun-13 14:30N 40°40' W 074°00'0 0.0
2018-Jun-13 14:00N 40°40' W 074°00'0 0.0
2018-Jun-13 13:30N 40°40' W 074°00'0 0.0
2018-Jun-13 13:00N 40°40' W 074°00'0 0.0
2018-Jun-13 12:30N 40°40' W 074°00'0 0.0
2018-Jun-13 12:00N 40°40' W 074°00'0 0.0
2018-Jun-13 11:30N 40°40' W 074°00'0 0.0
2018-Jun-13 11:00N 40°40' W 074°00'0 0.0
2018-Jun-13 10:30N 40°40' W 074°00'0 0.0
2018-Jun-13 10:00N 40°40' W 074°00'0 0.0
2018-Jun-13 09:30N 40°40' W 074°00'0 0.0
2018-Jun-13 09:00N 40°40' W 074°00'0 0.0
2018-Jun-13 08:30N 40°40' W 074°00'0 0.0
2018-Jun-13 08:00N 40°40' W 074°00'0 0.0
2018-Jun-13 07:30N 40°40' W 074°00'0 0.0
2018-Jun-13 07:00N 40°40' W 074°00'0 0.0
2018-Jun-13 06:30N 40°40' W 074°00'0 0.0
2018-Jun-13 06:00N 40°40' W 074°00'0 0.0
2018-Jun-13 05:30N 40°40' W 074°00'0 0.0
2018-Jun-13 05:00N 40°40' W 074°00'0 0.0
2018-Jun-13 04:30N 40°40' W 074°00'0 0.0
2018-Jun-13 04:00N 40°40' W 074°00'0 0.0
2018-Jun-13 03:30N 40°40' W 074°00'0 0.0
2018-Jun-13 03:00N 40°40' W 074°00'0 0.0
2018-Jun-13 02:30N 40°40' W 074°00'0 0.0
2018-Jun-13 02:00N 40°40' W 074°00'0 0.0
2018-Jun-13 01:30N 40°40' W 074°00'0 0.0
2018-Jun-13 01:00N 40°40' W 074°00'0 0.0
2018-Jun-13 00:30N 40°40' W 074°00'0 0.0
2018-Jun-13 00:00N 40°40' W 074°00'0 0.0
2018-Jun-12 23:30N 40°40' W 074°00'0 0.0
2018-Jun-12 23:00N 40°40' W 074°00'0 0.0
2018-Jun-12 22:30N 40°40' W 074°00'0 0.0
2018-Jun-12 22:00N 40°40' W 074°00'0 0.0
2018-Jun-12 21:30N 40°40' W 074°00'0 0.0
2018-Jun-12 21:00N 40°40' W 074°00'0 0.0
2018-Jun-12 20:30N 40°40' W 074°00'0 0.0
2018-Jun-12 20:00N 40°40' W 074°00'0 0.0
2018-Jun-12 19:30N 40°40' W 074°00'0 0.0
2018-Jun-12 19:00N 40°40' W 074°00'0 0.0
2018-Jun-12 18:30N 40°40' W 074°00'3 6.5
2018-Jun-12 18:00N 40°39' W 074°04'5 9.1
2018-Jun-12 17:30N 40°39' W 074°10'1 2.3
2018-Jun-12 17:00N 40°38' W 074°12'0 0.0
2018-Jun-12 16:29N 40°38' W 074°12'0 0.0
2018-Jun-12 16:00N 40°38' W 074°12'0 0.0
2018-Jun-12 15:30N 40°38' W 074°12'0 0.0
2018-Jun-12 15:00N 40°38' W 074°12'0 0.0
2018-Jun-12 14:01N 40°38' W 074°12'0 1.7
2018-Jun-12 13:54N 40°38' W 074°12'4 8.7
2018-Jun-12 13:29N 40°39' W 074°07'4 8.5
2018-Jun-12 13:00N 40°40' W 074°02'1 2.4
2018-Jun-12 12:30N 40°40' W 074°00'0 0.0
2018-Jun-12 12:00N 40°40' W 074°00'0 0.0
2018-Jun-12 11:30N 40°40' W 074°00'0 0.0
2018-Jun-12 11:00N 40°40' W 074°00'0 0.0
2018-Jun-12 10:31N 40°40' W 074°00'0 0.0
2018-Jun-12 10:00N 40°40' W 074°00'0 0.0
2018-Jun-12 09:30N 40°40' W 074°00'0 0.0
2018-Jun-12 08:59N 40°40' W 074°00'0 0.0
2018-Jun-12 08:27N 40°40' W 074°00'0 0.0
2018-Jun-12 08:00N 40°40' W 074°00'0 0.0
2018-Jun-12 07:30N 40°40' W 074°00'0 0.0
2018-Jun-12 07:00N 40°40' W 074°00'0 0.0
2018-Jun-12 06:30N 40°40' W 074°00'0 0.0
2018-Jun-12 05:55N 40°40' W 074°00'0 0.0
2018-Jun-12 05:30N 40°40' W 074°00'0 0.0
2018-Jun-12 04:59N 40°40' W 074°00'0 0.0
2018-Jun-12 04:28N 40°40' W 074°00'0 0.0
2018-Jun-12 03:58N 40°40' W 074°00'0 0.0
2018-Jun-12 03:28N 40°40' W 074°00'0 0.0
2018-Jun-12 02:50N 40°40' W 074°00'0 0.0
2018-Jun-12 02:30N 40°40' W 074°00'0 0.0
2018-Jun-12 01:59N 40°40' W 074°00'0 0.0
2018-Jun-12 01:27N 40°40' W 074°00'0 0.0
2018-Jun-12 01:00N 40°40' W 074°00'0 0.0
2018-Jun-12 00:26N 40°40' W 074°00'0 0.0
2018-Jun-12 00:00N 40°40' W 074°00'0 0.0
2018-Jun-11 23:30N 40°40' W 074°00'0 0.0
2018-Jun-11 23:00N 40°40' W 074°00'0 0.0
2018-Jun-11 22:29N 40°40' W 074°00'0 0.0
2018-Jun-11 21:56N 40°40' W 074°00'0 0.0
2018-Jun-11 21:28N 40°40' W 074°00'0 0.0
2018-Jun-11 20:59N 40°40' W 074°00'0 0.0
2018-Jun-11 20:23N 40°40' W 074°00'0 0.0
2018-Jun-11 19:54N 40°40' W 074°00'0 0.0
2018-Jun-11 19:30N 40°40' W 074°00'0 0.0
2018-Jun-11 19:00N 40°40' W 074°00'0 0.0
2018-Jun-11 18:30N 40°40' W 074°00'  

Dump ship's entire track history